Time;durP1;ratioP1;P1;durP2;ratioP2;P2;SDS_P1;SDS_P2;PMS_P1;PMS_P2;Temp;Humidity;BMP_temperature;BMP_pressure;BME280_temperature;BME280_humidity;BME280_pressure;Samples;Min_cycle;Max_cycle;Signal;HPM_P1;HPM_P2
2022/04/27 00:01:51;;;;;;;7.68;4.93;;;13.80;99.90;;;;;;5036239;28;20397;-61
2022/04/27 00:04:16;;;;;;;6.13;4.90;;;13.90;99.90;;;;;;5032488;28;20080;-60
2022/04/27 00:06:42;;;;;;;8.38;4.65;;;13.80;99.90;;;;;;5038308;28;20036;-60
2022/04/27 00:09:08;;;;;;;5.20;4.70;;;13.80;99.90;;;;;;5034601;28;20049;-61
2022/04/27 00:11:34;;;;;;;7.57;4.57;;;13.80;99.90;;;;;;5036620;28;20033;-60
2022/04/27 00:14:00;;;;;;;6.72;4.47;;;13.80;99.90;;;;;;5035757;28;20033;-61
2022/04/27 00:16:27;;;;;;;7.00;4.55;;;13.70;99.90;;;;;;5032993;28;20052;-60
2022/04/27 00:18:53;;;;;;;6.50;4.45;;;13.70;99.90;;;;;;5036632;28;20018;-61
2022/04/27 00:21:18;;;;;;;7.00;4.75;;;13.70;99.90;;;;;;5036459;28;20032;-60
2022/04/27 00:23:44;;;;;;;5.88;4.60;;;13.80;99.90;;;;;;5035786;28;20038;-60
2022/04/27 00:26:10;;;;;;;6.95;4.75;;;13.80;99.90;;;;;;5036388;28;20039;-60
2022/04/27 00:28:36;;;;;;;6.97;4.45;;;13.80;99.90;;;;;;5033668;28;20036;-60
2022/04/27 00:31:01;;;;;;;6.35;4.50;;;13.80;99.90;;;;;;5035219;28;20507;-60
2022/04/27 00:33:27;;;;;;;6.80;4.53;;;13.70;99.90;;;;;;5035499;28;20029;-60
2022/04/27 00:35:53;;;;;;;7.38;4.60;;;13.80;99.90;;;;;;5034188;28;20038;-60
2022/04/27 00:38:19;;;;;;;8.32;4.60;;;13.90;99.90;;;;;;5035332;28;20049;-60
2022/04/27 00:40:45;;;;;;;6.65;4.63;;;13.90;99.90;;;;;;5035432;28;20104;-60
2022/04/27 00:43:14;;;;;;;6.47;4.80;;;13.80;99.90;;;;;;5032595;28;20530;-60
2022/04/27 00:45:41;;;;;;;5.47;4.07;;;13.80;99.90;;;;;;5037748;28;20033;-60
2022/04/27 00:48:07;;;;;;;6.57;4.68;;;13.80;99.90;;;;;;5035622;28;20030;-60
2022/04/27 00:50:32;;;;;;;7.57;4.72;;;13.90;99.90;;;;;;5035891;28;20087;-60
2022/04/27 00:53:00;;;;;;;6.72;4.45;;;13.80;99.90;;;;;;5035224;28;20025;-60
2022/04/27 00:55:26;;;;;;;5.47;4.43;;;13.70;99.90;;;;;;5031753;28;20057;-60
2022/04/27 00:57:52;;;;;;;6.43;4.68;;;13.70;99.90;;;;;;5036126;28;20060;-60
2022/04/27 01:00:18;;;;;;;7.05;4.78;;;13.70;99.90;;;;;;5034765;28;20467;-60
2022/04/27 01:02:43;;;;;;;6.63;5.07;;;13.70;99.90;;;;;;5035195;28;20120;-60
2022/04/27 01:05:11;;;;;;;4.93;4.43;;;13.70;99.90;;;;;;5035154;28;20046;-60
2022/04/27 01:07:41;;;;;;;6.65;4.80;;;13.80;99.90;;;;;;5032978;28;20083;-60
2022/04/27 01:10:08;;;;;;;7.30;4.60;;;13.80;99.90;;;;;;5032672;28;20597;-60
2022/04/27 01:12:35;;;;;;;5.65;4.60;;;13.70;99.90;;;;;;5035924;28;20397;-60
2022/04/27 01:15:01;;;;;;;6.45;4.50;;;13.70;99.90;;;;;;5033423;28;20026;-60
2022/04/27 01:17:26;;;;;;;9.73;4.80;;;13.80;99.90;;;;;;5035240;28;20044;-60
2022/04/27 01:19:52;;;;;;;5.90;4.60;;;13.80;99.90;;;;;;5035048;28;20191;-60
2022/04/27 01:22:18;;;;;;;5.50;4.60;;;13.80;99.90;;;;;;5014487;28;20076;-60
2022/04/27 01:24:44;;;;;;;7.13;4.78;;;13.80;99.90;;;;;;5037092;28;20037;-60
2022/04/27 01:27:10;;;;;;;7.82;4.82;;;13.80;99.90;;;;;;5034943;28;20569;-60
2022/04/27 01:29:37;;;;;;;5.85;4.75;;;13.90;99.90;;;;;;5034826;28;20440;-60
2022/04/27 01:32:03;;;;;;;7.95;4.70;;;13.80;99.90;;;;;;5034594;28;20048;-60
2022/04/27 01:34:29;;;;;;;7.25;5.07;;;13.90;99.90;;;;;;5030967;28;20028;-60
2022/04/27 01:37:59;;;;;;;7.07;4.50;;;13.90;99.90;;;;;;5034516;28;20441;-61
2022/04/27 01:39:41;;;;;;;7.38;4.63;;;13.90;99.90;;;;;;5036605;28;20056;-60
2022/04/27 01:42:07;;;;;;;6.25;4.50;;;13.90;99.90;;;;;;5034546;28;20021;-60
2022/04/27 01:44:33;;;;;;;6.57;4.70;;;13.90;99.90;;;;;;5034462;28;20483;-60
2022/04/27 01:46:59;;;;;;;6.78;4.38;;;13.90;99.90;;;;;;5034786;28;20053;-60
2022/04/27 01:49:25;;;;;;;7.28;4.47;;;13.90;99.90;;;;;;5029293;28;20034;-60
2022/04/27 01:54:35;;;;;;;;;;;13.90;99.90;;;;;;5035637;28;20094;-60
2022/04/27 01:57:00;;;;;;;7.72;5.18;;;13.90;99.90;;;;;;5034271;28;20294;-59
2022/04/27 01:59:26;;;;;;;6.13;4.60;;;13.90;99.90;;;;;;5034214;28;20026;-60
2022/04/27 02:01:52;;;;;;;6.32;5.15;;;13.90;99.90;;;;;;5034561;28;20024;-60
2022/04/27 02:04:17;;;;;;;5.93;4.68;;;13.90;99.90;;;;;;5029617;28;20515;-60
2022/04/27 02:06:43;;;;;;;6.90;5.05;;;13.80;99.90;;;;;;5036299;28;20089;-60
2022/04/27 02:09:09;;;;;;;6.72;5.18;;;13.80;99.90;;;;;;5034276;28;20049;-60
2022/04/27 02:11:35;;;;;;;8.55;5.20;;;13.80;99.90;;;;;;5034316;28;20036;-60
2022/04/27 02:14:01;;;;;;;8.65;5.07;;;13.70;99.90;;;;;;5034049;28;20474;-59
2022/04/27 02:16:28;;;;;;;8.52;5.25;;;13.60;99.90;;;;;;5030433;28;20497;-60
2022/04/27 02:18:55;;;;;;;8.32;5.05;;;13.60;99.90;;;;;;5034159;28;20021;-60
2022/04/27 02:21:21;;;;;;;7.45;5.10;;;13.60;99.90;;;;;;5035027;28;20026;-60
2022/04/27 02:23:47;;;;;;;8.23;5.10;;;13.60;99.90;;;;;;5033985;28;20033;-61
2022/04/27 02:26:13;;;;;;;8.15;4.97;;;13.60;99.90;;;;;;5033969;28;20156;-60
2022/04/27 02:28:38;;;;;;;7.03;5.32;;;13.60;99.90;;;;;;5030768;28;20108;-60
2022/04/27 02:31:04;;;;;;;6.82;5.30;;;13.60;99.90;;;;;;5032154;28;20116;-60
2022/04/27 02:33:30;;;;;;;6.97;5.68;;;13.60;99.90;;;;;;5033714;28;20029;-60
2022/04/27 02:35:57;;;;;;;6.05;5.28;;;13.60;99.90;;;;;;5033676;28;20044;-60
2022/04/27 02:38:22;;;;;;;6.15;5.55;;;13.50;99.90;;;;;;5033784;28;20049;-60
2022/04/27 02:40:48;;;;;;;6.63;5.57;;;13.50;99.90;;;;;;5032005;28;20025;-60
2022/04/27 02:43:15;;;;;;;6.15;5.50;;;13.40;99.90;;;;;;5030105;28;20464;-60
2022/04/27 02:45:41;;;;;;;6.20;5.60;;;13.30;99.90;;;;;;5036690;28;20037;-60
2022/04/27 02:48:07;;;;;;;7.53;6.15;;;13.20;99.90;;;;;;5037442;28;20041;-60
2022/04/27 02:53:18;;;;;;;7.22;5.60;;;13.10;99.90;;;;;;5038020;28;20056;-60
2022/04/27 02:55:44;;;;;;;6.68;5.88;;;13.10;99.90;;;;;;5036414;28;20502;-61
2022/04/27 02:58:10;;;;;;;6.72;5.80;;;13.10;99.90;;;;;;5034404;28;20030;-60
2022/04/27 03:00:36;;;;;;;6.63;5.90;;;13.10;99.90;;;;;;5039369;28;20155;-60
2022/04/27 03:03:03;;;;;;;10.38;5.70;;;13.20;99.90;;;;;;5037338;28;20026;-60
2022/04/27 03:05:28;;;;;;;6.75;5.40;;;13.20;99.90;;;;;;5037518;28;20037;-60
2022/04/27 03:07:54;;;;;;;9.23;5.78;;;13.20;99.90;;;;;;5036029;28;20413;-60
2022/04/27 03:10:20;;;;;;;7.78;5.88;;;13.10;99.90;;;;;;5032266;28;20034;-60
2022/04/27 03:12:46;;;;;;;8.02;5.63;;;13.20;99.90;;;;;;5039091;28;20163;-60
2022/04/27 03:15:11;;;;;;;7.30;5.78;;;13.20;99.90;;;;;;5037522;28;20036;-60
2022/04/27 03:17:37;;;;;;;6.88;6.20;;;13.20;99.90;;;;;;5036995;28;20494;-60
2022/04/27 03:20:04;;;;;;;10.05;8.93;;;13.20;99.90;;;;;;5037229;28;20115;-60
2022/04/27 03:22:30;;;;;;;9.70;6.15;;;13.20;99.90;;;;;;5034037;28;20028;-61
2022/04/27 03:24:56;;;;;;;8.40;6.80;;;13.30;99.90;;;;;;5037409;28;20033;-61
2022/04/27 03:27:21;;;;;;;7.18;6.47;;;13.30;99.90;;;;;;5037861;28;20347;-60
2022/04/27 03:29:47;;;;;;;8.60;6.93;;;13.30;99.90;;;;;;5037401;28;20022;-61
2022/04/27 03:32:13;;;;;;;6.93;6.28;;;13.30;99.90;;;;;;5036662;28;20925;-61
2022/04/27 03:34:39;;;;;;;7.10;6.43;;;13.30;99.90;;;;;;5035002;28;20030;-61
2022/04/27 03:37:05;;;;;;;7.07;5.75;;;13.30;99.90;;;;;;5035053;28;20042;-61
2022/04/27 03:39:30;;;;;;;8.63;5.70;;;13.30;99.90;;;;;;5036603;28;20125;-60
2022/04/27 03:41:57;;;;;;;6.78;5.50;;;13.30;99.90;;;;;;5036801;28;20112;-60
2022/04/27 03:44:23;;;;;;;6.57;5.80;;;13.30;99.90;;;;;;5036589;28;20025;-60
2022/04/27 03:46:49;;;;;;;6.43;5.80;;;13.30;99.90;;;;;;5034482;28;20021;-60
2022/04/27 03:49:15;;;;;;;6.05;5.45;;;13.40;99.90;;;;;;5032279;28;20092;-62
2022/04/27 03:51:40;;;;;;;7.00;5.88;;;13.40;99.90;;;;;;5038318;28;20029;-61
2022/04/27 03:54:06;;;;;;;8.95;5.72;;;13.40;99.90;;;;;;5036740;28;20084;-61
2022/04/27 03:56:32;;;;;;;5.57;4.95;;;13.30;99.90;;;;;;5036057;28;20802;-61
2022/04/27 03:58:58;;;;;;;5.82;5.20;;;13.40;99.90;;;;;;5036470;28;20067;-61
2022/04/27 04:01:24;;;;;;;5.70;5.20;;;13.40;99.90;;;;;;5032966;28;20025;-61
2022/04/27 04:03:49;;;;;;;7.07;5.40;;;13.40;99.90;;;;;;5036880;28;20026;-61
2022/04/27 04:06:15;;;;;;;6.07;5.47;;;13.40;99.90;;;;;;5035193;28;20026;-61
2022/04/27 04:08:41;;;;;;;5.47;4.97;;;13.40;99.90;;;;;;5036479;28;20449;-61
2022/04/27 04:11:07;;;;;;;6.78;5.35;;;13.40;99.90;;;;;;5036651;28;20031;-61
2022/04/27 04:13:32;;;;;;;6.70;5.70;;;13.40;99.90;;;;;;5033271;28;20025;-61
2022/04/27 04:15:58;;;;;;;7.65;5.78;;;13.30;99.90;;;;;;5035456;28;20503;-60
2022/04/27 04:18:24;;;;;;;6.28;5.50;;;13.40;99.90;;;;;;5037573;28;20097;-61
2022/04/27 04:20:50;;;;;;;5.90;5.25;;;13.40;99.90;;;;;;5036374;28;20479;-61
2022/04/27 04:23:15;;;;;;;7.32;5.45;;;13.40;99.90;;;;;;5036529;28;20080;-61
2022/04/27 04:28:31;;;;;;;5.95;5.30;;;13.40;99.90;;;;;;5016536;28;20068;-61
2022/04/27 04:30:59;;;;;;;7.55;5.80;;;13.40;99.90;;;;;;5035457;28;20037;-61
2022/04/27 04:33:25;;;;;;;6.32;5.68;;;13.30;99.90;;;;;;5037181;28;20376;-61
2022/04/27 04:35:52;;;;;;;6.65;5.63;;;13.30;99.90;;;;;;5035849;28;20098;-61
2022/04/27 04:38:18;;;;;;;6.10;5.50;;;13.30;99.90;;;;;;5035781;28;20033;-61
2022/04/27 04:40:44;;;;;;;9.02;5.57;;;13.30;99.90;;;;;;5034715;28;20029;-62
2022/04/27 04:43:10;;;;;;;7.03;6.20;;;13.30;99.90;;;;;;5032260;28;20131;-61
2022/04/27 04:45:36;;;;;;;6.28;5.32;;;13.20;99.90;;;;;;5038144;28;20026;-61
2022/04/27 04:48:01;;;;;;;8.65;5.70;;;13.30;99.90;;;;;;5035700;28;20573;-61
2022/04/27 04:50:27;;;;;;;5.80;5.30;;;13.30;99.90;;;;;;5035628;28;20033;-61
2022/04/27 04:52:53;;;;;;;6.90;5.70;;;13.30;99.90;;;;;;5036032;28;20021;-61
2022/04/27 04:55:18;;;;;;;7.35;6.32;;;13.20;99.90;;;;;;5031207;28;20080;-61
2022/04/27 04:57:44;;;;;;;6.47;5.80;;;13.20;99.90;;;;;;5037209;28;20088;-61
2022/04/27 05:00:10;;;;;;;7.18;5.88;;;13.10;99.90;;;;;;5035419;28;20490;-61
2022/04/27 05:02:36;;;;;;;7.22;6.00;;;13.10;99.90;;;;;;5035369;28;20084;-61
2022/04/27 05:05:03;;;;;;;6.50;5.90;;;13.10;99.90;;;;;;5034146;28;20031;-61
2022/04/27 05:07:30;;;;;;;7.65;6.20;;;13.10;99.90;;;;;;5030675;28;20073;-61
2022/04/27 05:09:56;;;;;;;7.22;5.97;;;13.20;99.90;;;;;;5034232;28;20013;-62
2022/04/27 05:12:23;;;;;;;7.45;6.18;;;13.10;99.90;;;;;;5036156;28;20041;-61
2022/04/27 05:14:49;;;;;;;7.63;6.00;;;13.10;99.90;;;;;;5035202;28;20045;-61
2022/04/27 05:17:15;;;;;;;6.88;5.90;;;13.10;99.90;;;;;;5035045;28;20457;-63
2022/04/27 05:19:41;;;;;;;8.18;6.32;;;13.10;99.90;;;;;;5032571;28;20086;-61
2022/04/27 05:22:07;;;;;;;7.85;6.57;;;13.10;99.90;;;;;;5032052;28;20056;-61
2022/04/27 05:24:32;;;;;;;6.85;6.15;;;13.10;99.90;;;;;;5035976;28;20029;-61
2022/04/27 05:26:58;;;;;;;7.00;6.30;;;12.90;99.90;;;;;;5033328;28;20093;-61
2022/04/27 05:32:10;;;;;;;7.70;6.45;;;13.10;99.90;;;;;;5034821;28;20039;-61
2022/04/27 05:34:36;;;;;;;7.20;6.50;;;13.00;99.90;;;;;;5032572;28;20112;-61
2022/04/27 05:37:02;;;;;;;7.32;6.57;;;13.10;99.90;;;;;;5033059;28;20034;-61
2022/04/27 05:39:28;;;;;;;9.63;6.90;;;13.00;99.90;;;;;;5036431;28;20054;-61
2022/04/27 05:41:54;;;;;;;7.82;6.18;;;13.00;99.90;;;;;;5034443;28;20033;-61
2022/04/27 05:44:22;;;;;;;7.20;6.40;;;13.00;99.90;;;;;;5033113;28;20029;-60
2022/04/27 05:46:49;;;;;;;7.00;6.32;;;12.90;99.90;;;;;;5032514;28;20036;-61
2022/04/27 05:49:15;;;;;;;6.85;6.05;;;12.90;99.90;;;;;;5030690;28;20486;-61
2022/04/27 05:51:41;;;;;;;9.20;6.50;;;12.90;99.90;;;;;;5036567;28;20091;-61
2022/04/27 05:54:07;;;;;;;7.40;6.07;;;12.90;99.90;;;;;;5034337;28;20045;-61
2022/04/27 05:56:34;;;;;;;8.15;7.05;;;12.90;99.90;;;;;;5034327;28;20045;-61
2022/04/27 05:59:01;;;;;;;9.73;7.10;;;12.90;99.90;;;;;;5034337;28;20070;-61
2022/04/27 06:01:28;;;;;;;12.32;7.47;;;12.80;99.90;;;;;;5030881;28;20029;-61
2022/04/27 06:03:54;;;;;;;8.45;7.13;;;12.70;99.90;;;;;;5034585;28;20394;-61
2022/04/27 06:06:21;;;;;;;8.50;7.55;;;12.60;99.90;;;;;;5035091;28;20029;-61
2022/04/27 06:08:47;;;;;;;8.93;8.05;;;12.40;99.90;;;;;;5034471;28;20387;-61
2022/04/27 06:11:12;;;;;;;9.27;7.63;;;12.30;99.90;;;;;;5033796;28;20115;-61
2022/04/27 06:13:38;;;;;;;11.50;7.38;;;12.40;99.90;;;;;;5032354;28;20410;-61
2022/04/27 06:16:04;;;;;;;10.73;8.15;;;12.40;99.90;;;;;;5031852;28;20048;-61
2022/04/27 06:18:29;;;;;;;8.73;7.78;;;12.40;99.90;;;;;;5033939;28;20018;-61
2022/04/27 06:20:56;;;;;;;9.60;8.50;;;12.60;99.90;;;;;;5033760;28;20037;-61
2022/04/27 06:23:23;;;;;;;8.38;7.53;;;12.60;99.90;;;;;;5032437;28;20541;-61
2022/04/27 06:25:52;;;;;;;8.48;7.68;;;12.50;99.90;;;;;;5031737;28;20112;-62
2022/04/27 06:28:18;;;;;;;8.80;7.95;;;12.50;99.90;;;;;;5014431;28;20026;-61
2022/04/27 06:30:44;;;;;;;9.32;8.38;;;12.50;99.90;;;;;;5035829;28;20041;-61
2022/04/27 06:33:09;;;;;;;9.70;8.70;;;12.60;99.90;;;;;;5034100;28;20025;-61
2022/04/27 06:35:35;;;;;;;9.68;8.75;;;12.60;99.90;;;;;;5033737;28;20084;-61
2022/04/27 06:38:01;;;;;;;9.25;8.30;;;12.50;99.90;;;;;;5033958;28;20045;-61
2022/04/27 06:40:27;;;;;;;10.35;8.90;;;12.60;99.90;;;;;;5030185;28;20025;-61
2022/04/27 06:42:53;;;;;;;9.85;8.95;;;12.60;99.90;;;;;;5034394;28;20076;-61
2022/04/27 06:45:19;;;;;;;13.20;9.55;;;12.60;99.90;;;;;;5033269;28;20494;-61
2022/04/27 06:47:45;;;;;;;10.45;9.35;;;12.60;99.90;;;;;;5033871;28;20033;-60
2022/04/27 06:50:12;;;;;;;10.75;9.73;;;12.70;99.90;;;;;;5033648;28;20476;-61
2022/04/27 06:52:45;;;;;;;11.75;10.13;;;12.70;99.90;;;;;;5031538;28;20029;-61
2022/04/27 06:55:11;;;;;;;;;;;12.80;99.90;;;;;;5030338;28;20117;-61
2022/04/27 06:57:37;;;;;;;11.07;9.70;;;12.90;99.90;;;;;;5036118;28;19996;-61
2022/04/27 07:00:04;;;;;;;9.70;8.80;;;13.00;99.90;;;;;;5033695;28;20030;-61
2022/04/27 07:02:30;;;;;;;9.52;8.40;;;12.90;99.90;;;;;;5032288;28;20014;-61
2022/04/27 07:05:00;;;;;;;9.77;8.52;;;12.80;99.90;;;;;;5032162;28;20108;-61
2022/04/27 07:07:27;;;;;;;9.45;8.45;;;12.80;99.90;;;;;;5029769;28;20067;-61
2022/04/27 07:09:53;;;;;;;9.15;8.25;;;12.90;99.90;;;;;;5033844;28;20497;-62
2022/04/27 07:12:20;;;;;;;9.50;8.43;;;12.90;99.90;;;;;;5031946;28;20022;-60
2022/04/27 07:14:46;;;;;;;9.50;8.60;;;12.80;99.90;;;;;;5033584;28;20029;-61
2022/04/27 07:17:12;;;;;;;9.90;9.00;;;13.00;99.90;;;;;;5033536;28;20405;-61
2022/04/27 07:19:38;;;;;;;11.23;10.13;;;13.10;99.90;;;;;;5031950;28;20056;-61
2022/04/27 07:22:05;;;;;;;13.43;9.77;;;13.20;99.90;;;;;;5031058;28;20444;-61
2022/04/27 07:24:32;;;;;;;11.10;10.00;;;13.10;99.90;;;;;;5032962;28;20033;-61
2022/04/27 07:26:58;;;;;;;10.60;9.63;;;13.20;99.90;;;;;;5032172;28;20417;-61
2022/04/27 07:29:24;;;;;;;9.40;8.50;;;13.10;99.90;;;;;;5033756;28;20025;-61
2022/04/27 07:31:50;;;;;;;9.57;8.73;;;13.20;99.90;;;;;;5034047;28;20028;-61
2022/04/27 07:34:17;;;;;;;10.18;9.18;;;13.20;99.90;;;;;;5032897;28;20625;-61
2022/04/27 07:36:42;;;;;;;9.43;8.45;;;13.20;99.90;;;;;;5038828;28;20091;-61
2022/04/27 07:39:08;;;;;;;9.50;8.55;;;13.30;99.90;;;;;;5036470;28;20132;-61
2022/04/27 07:41:34;;;;;;;8.75;7.90;;;13.40;99.90;;;;;;5035572;28;20033;-61
2022/04/27 07:44:00;;;;;;;8.88;7.88;;;13.60;99.90;;;;;;5035719;28;20548;-61
2022/04/27 07:46:26;;;;;;;8.35;7.65;;;13.70;99.90;;;;;;5033175;28;20037;-61
2022/04/27 07:48:51;;;;;;;8.95;8.05;;;13.90;99.90;;;;;;5037682;28;20118;-61
2022/04/27 07:51:17;;;;;;;9.73;8.00;;;14.00;99.90;;;;;;5037190;28;20466;-61
2022/04/27 07:53:43;;;;;;;8.40;7.40;;;14.10;99.90;;;;;;5036466;28;20030;-61
2022/04/27 07:56:10;;;;;;;8.23;7.07;;;14.50;99.90;;;;;;5037169;28;20029;-61
2022/04/27 07:58:36;;;;;;;9.82;7.10;;;14.60;99.90;;;;;;5034260;28;20102;-61
2022/04/27 08:01:03;;;;;;;7.97;6.85;;;14.90;99.90;;;;;;5034993;28;20075;-61
2022/04/27 08:03:28;;;;;;;7.38;6.63;;;15.80;99.90;;;;;;5038390;28;20057;-60
2022/04/27 08:05:54;;;;;;;8.38;6.07;;;16.60;99.90;;;;;;5036465;28;20061;-61
2022/04/27 08:08:21;;;;;;;7.32;6.00;;;19.50;99.90;;;;;;5035995;28;20029;-61
2022/04/27 08:10:46;;;;;;;7.25;5.50;;;20.70;99.90;;;;;;5035508;28;20032;-60
2022/04/27 08:13:13;;;;;;;9.68;5.70;;;21.90;99.90;;;;;;5032994;28;20026;-61
2022/04/27 08:15:38;;;;;;;8.50;5.70;;;22.40;99.90;;;;;;5038292;28;20418;-61
2022/04/27 08:18:08;;;;;;;7.93;5.57;;;22.20;99.90;;;;;;5036531;28;20056;-61
2022/04/27 08:23:23;;;;;;;10.27;6.07;;;23.50;99.90;;;;;;5035011;28;20124;-61
2022/04/27 08:25:50;;;;;;;10.02;5.32;;;24.00;99.90;;;;;;5035590;28;20028;-61
2022/04/27 08:28:17;;;;;;;9.73;5.55;;;24.40;99.90;;;;;;5032614;28;20017;-61
2022/04/27 08:30:45;;;;;;;11.77;5.85;;;23.60;99.90;;;;;;5038015;28;20087;-61
2022/04/27 08:33:12;;;;;;;9.20;5.80;;;22.80;99.90;;;;;;5035848;28;20108;-61
2022/04/27 08:35:37;;;;;;;11.23;5.82;;;22.00;99.90;;;;;;5035718;28;20037;-61
2022/04/27 08:38:05;;;;;;;12.18;6.03;;;21.50;99.90;;;;;;5036073;28;20044;-61
2022/04/27 08:40:34;;;;;;;11.82;5.95;;;21.70;99.90;;;;;;5032696;28;20064;-61
2022/04/27 08:43:02;;;;;;;9.05;5.53;;;20.90;99.90;;;;;;5034195;28;20410;-61
2022/04/27 08:45:29;;;;;;;10.82;5.68;;;20.30;99.90;;;;;;5037663;28;20040;-60
2022/04/27 08:47:56;;;;;;;9.70;6.00;;;20.20;99.90;;;;;;5035562;28;20044;-61
2022/04/27 08:50:24;;;;;;;10.60;5.60;;;19.90;99.90;;;;;;5035250;28;20036;-61
2022/04/27 08:52:51;;;;;;;11.07;6.22;;;19.80;99.90;;;;;;5035406;28;20116;-61
2022/04/27 08:55:19;;;;;;;12.55;6.28;;;20.00;99.90;;;;;;5031317;28;20060;-61
2022/04/27 08:57:45;;;;;;;15.00;6.03;;;20.20;99.90;;;;;;5037798;28;20037;-61
2022/04/27 09:00:19;;;;;;;11.50;5.97;;;20.10;99.90;;;;;;5034228;28;20087;-60
2022/04/27 09:02:45;;;;;;;;;;;20.00;99.90;;;;;;5034283;28;20413;-60
2022/04/27 09:05:12;;;;;;;10.18;6.22;;;19.80;99.90;;;;;;5035033;28;19909;-61
2022/04/27 09:07:46;;;;;;;13.75;6.72;;;19.60;99.90;;;;;;5033340;28;20132;-61
2022/04/27 09:10:17;;;;;;;15.35;6.63;;;19.80;99.90;;;;;;5032072;28;20406;-61
2022/04/27 09:12:50;;;;;;;12.98;5.97;;;19.90;99.90;;;;;;5037257;28;20490;-61
2022/04/27 09:15:20;;;;;;;13.10;5.90;;;20.30;99.90;;;;;;5034321;28;20037;-61
2022/04/27 09:20:50;;;;;;;17.33;6.05;;;20.90;99.90;;;;;;5034766;28;20079;-61
2022/04/27 09:23:22;;;;;;;15.65;5.45;;;21.50;99.90;;;;;;5035110;28;20030;-61
2022/04/27 09:25:50;;;;;;;14.05;5.68;;;22.10;99.90;;;;;;5034330;28;20446;-61
2022/04/27 09:28:16;;;;;;;14.10;5.38;;;23.00;99.90;;;;;;5031393;28;20047;-61
2022/04/27 09:30:44;;;;;;;12.00;4.75;;;23.70;99.90;;;;;;5036828;28;20457;-61
2022/04/27 09:33:10;;;;;;;13.55;5.25;;;23.00;99.90;;;;;;5034713;28;20113;-60
2022/04/27 09:35:37;;;;;;;10.88;5.22;;;22.10;99.90;;;;;;5034746;28;20144;-60
2022/04/27 09:38:15;;;;;;;11.80;4.78;;;21.90;99.90;;;;;;5033235;28;20511;-61
2022/04/27 09:40:52;;;;;;;10.30;4.90;;;21.40;99.90;;;;;;5031475;28;20552;-61
2022/04/27 09:43:42;;;;;;;13.20;5.70;;;21.20;99.90;;;;;;5030511;28;20034;-61
2022/04/27 09:46:25;;;;;;;13.98;5.20;;;21.10;99.90;;;;;;5044869;28;20137;-61
2022/04/27 09:49:09;;;;;;;13.25;5.65;;;20.60;99.90;;;;;;5044508;28;20044;-61
2022/04/27 09:51:35;;;;;;;;;;;20.70;99.90;;;;;;5036927;28;20083;-61
2022/04/27 09:54:03;;;;;;;12.50;5.70;;;20.50;99.90;;;;;;5034618;28;19995;-61
2022/04/27 09:56:39;;;;;;;12.27;5.10;;;20.50;99.90;;;;;;5034178;28;20411;-61
2022/04/27 09:59:09;;;;;;;12.25;5.53;;;20.40;99.90;;;;;;5034526;28;20135;-61
2022/04/27 10:01:36;;;;;;;12.20;5.05;;;20.50;99.90;;;;;;5031633;28;20036;-61
2022/04/27 10:04:06;;;;;;;11.77;4.75;;;20.30;99.90;;;;;;5033167;28;20187;-61
2022/04/27 10:06:34;;;;;;;12.15;5.20;;;20.20;99.90;;;;;;5034345;28;20044;-61
2022/04/27 10:09:00;;;;;;;11.90;4.97;;;20.20;99.90;;;;;;5034434;28;20025;-61
2022/04/27 10:11:33;;;;;;;12.75;5.20;;;19.90;99.90;;;;;;5034213;28;20037;-61
2022/04/27 10:14:00;;;;;;;11.38;4.25;;;20.00;99.90;;;;;;5034471;28;20516;-61
2022/04/27 10:16:27;;;;;;;10.02;4.40;;;20.10;99.90;;;;;;5029053;28;20053;-61
2022/04/27 10:18:53;;;;;;;12.93;4.60;;;20.20;99.90;;;;;;5034862;28;20080;-61
2022/04/27 10:21:56;;;;;;;8.57;4.50;;;20.10;99.90;;;;;;5032936;28;20040;-61
2022/04/27 10:24:34;;;;;;;9.55;4.50;;;20.60;99.90;;;;;;5033561;28;20037;-61
2022/04/27 10:27:18;;;;;;;8.80;4.20;;;20.80;99.90;;;;;;5034307;28;20025;-61
2022/04/27 10:29:52;;;;;;;8.13;4.30;;;21.20;99.90;;;;;;5033892;28;20034;-61
2022/04/27 10:32:37;;;;;;;8.35;3.80;;;20.90;99.90;;;;;;5033684;28;20082;-61
2022/04/27 10:35:19;;;;;;;9.52;4.18;;;20.80;99.90;;;;;;5034523;28;20151;-61
2022/04/27 10:37:59;;;;;;;9.48;4.40;;;20.70;99.90;;;;;;5032342;28;20128;-61
2022/04/27 10:40:31;;;;;;;10.10;4.32;;;20.20;99.90;;;;;;5015238;28;20029;-61
2022/04/27 10:43:07;;;;;;;8.03;4.20;;;19.90;99.90;;;;;;5034291;28;20045;-61
2022/04/27 10:45:41;;;;;;;8.85;4.03;;;20.00;99.90;;;;;;5033698;28;20260;-61
2022/04/27 10:48:16;;;;;;;8.85;4.22;;;19.70;99.90;;;;;;5033768;28;20037;-61
2022/04/27 10:50:55;;;;;;;8.80;4.60;;;19.50;99.90;;;;;;5033777;28;20025;-61
2022/04/27 10:53:23;;;;;;;9.65;4.53;;;19.30;99.90;;;;;;5033773;28;20513;-61
2022/04/27 10:55:53;;;;;;;10.25;4.85;;;19.30;99.90;;;;;;5031627;28;20078;-61
2022/04/27 10:58:22;;;;;;;8.88;4.30;;;19.40;99.90;;;;;;5012791;28;20478;-61
2022/04/27 11:01:18;;;;;;;8.32;4.18;;;19.30;99.90;;;;;;5042294;28;20041;-61
2022/04/27 11:03:52;;;;;;;7.95;4.25;;;19.40;99.90;;;;;;5034809;28;20038;-61
2022/04/27 11:06:19;;;;;;;7.93;3.83;;;19.40;99.90;;;;;;5034404;28;20505;-60
2022/04/27 11:09:14;;;;;;;15.82;5.90;;;19.40;99.90;;;;;;5037560;28;20083;-61
2022/04/27 11:12:01;;;;;;;12.18;5.00;;;19.30;99.90;;;;;;5037578;28;20018;-61
2022/04/27 11:14:34;;;;;;;17.75;6.53;;;19.50;99.90;;;;;;5037552;28;20051;-61
2022/04/27 11:17:00;;;;;;;10.98;5.07;;;19.40;99.90;;;;;;5037441;28;20036;-61
2022/04/27 11:19:36;;;;;;;7.40;3.75;;;19.40;99.90;;;;;;5033595;28;20034;-61
2022/04/27 11:22:14;;;;;;;8.00;3.90;;;19.30;99.90;;;;;;5036133;28;20509;-61
2022/04/27 11:24:42;;;;;;;7.22;4.18;;;19.20;99.90;;;;;;5038262;28;20422;-61
2022/04/27 11:27:08;;;;;;;7.32;3.83;;;19.20;99.90;;;;;;5037110;28;20053;-61
2022/04/27 11:29:37;;;;;;;6.35;3.95;;;19.40;99.90;;;;;;5037301;28;20038;-61
2022/04/27 11:32:07;;;;;;;6.75;3.85;;;19.30;99.90;;;;;;5037158;28;20464;-61
2022/04/27 11:34:33;;;;;;;6.38;3.65;;;19.50;99.90;;;;;;5032633;28;20026;-61
2022/04/27 11:37:17;;;;;;;8.27;4.15;;;19.20;99.90;;;;;;5036800;28;20041;-61
2022/04/27 11:39:44;;;;;;;10.63;4.60;;;19.20;99.90;;;;;;5038243;28;20444;-61
2022/04/27 11:42:12;;;;;;;8.25;4.10;;;19.00;99.90;;;;;;5036785;28;20164;-60
2022/04/27 11:44:41;;;;;;;10.65;4.57;;;18.80;99.90;;;;;;5036963;28;20025;-61
2022/04/27 11:47:29;;;;;;;7.53;4.30;;;18.80;99.90;;;;;;5037070;28;20494;-61
2022/04/27 11:50:02;;;;;;;10.02;4.93;;;18.70;99.90;;;;;;5036840;28;20059;-61
2022/04/27 11:52:30;;;;;;;;;;;18.90;99.90;;;;;;5033714;28;20483;-61
2022/04/27 11:55:22;;;;;;;9.95;4.80;;;18.90;99.90;;;;;;5037425;28;19908;-61
2022/04/27 11:57:49;;;;;;;9.68;5.20;;;18.80;99.90;;;;;;5048844;28;20379;-61
2022/04/27 12:00:28;;;;;;;13.23;6.80;;;19.00;99.90;;;;;;5036482;28;20038;-60
2022/04/27 12:03:07;;;;;;;12.10;6.30;;;18.90;99.90;;;;;;5036865;28;20087;-61
2022/04/27 12:05:37;;;;;;;10.68;5.78;;;19.00;99.90;;;;;;5036763;28;20038;-61
2022/04/27 12:08:09;;;;;;;11.63;5.95;;;19.20;99.90;;;;;;5036888;28;20445;-61
2022/04/27 12:10:41;;;;;;;9.25;5.20;;;19.40;99.90;;;;;;5033617;28;20053;-61
2022/04/27 12:13:12;;;;;;;10.57;5.78;;;19.70;99.90;;;;;;5034268;28;20038;-61
2022/04/27 12:15:40;;;;;;;10.30;4.95;;;19.90;99.90;;;;;;5036988;28;20112;-61
2022/04/27 12:18:06;;;;;;;10.85;4.90;;;20.00;99.90;;;;;;5034479;28;20508;-61
2022/04/27 12:20:38;;;;;;;8.10;4.88;;;19.50;99.90;;;;;;5036489;28;20021;-61
2022/04/27 12:23:12;;;;;;;10.02;4.95;;;19.60;99.90;;;;;;5036231;28;20040;-61
2022/04/27 12:25:56;;;;;;;12.68;4.75;;;19.40;99.90;;;;;;5033951;28;20095;-61
2022/04/27 12:28:27;;;;;;;11.15;6.18;;;19.90;99.90;;;;;;5016004;28;20025;-60
2022/04/27 12:31:00;;;;;;;15.00;7.18;;;19.30;99.90;;;;;;5046268;28;20478;-61
2022/04/27 12:33:45;;;;;;;11.83;5.50;;;19.70;99.90;;;;;;5043947;28;20120;-61
2022/04/27 12:39:07;;;;;;;8.00;4.63;;;19.80;99.90;;;;;;5035880;28;20056;-61
2022/04/27 12:41:42;;;;;;;9.85;4.90;;;20.10;99.90;;;;;;5035643;28;20057;-61
2022/04/27 12:44:10;;;;;;;9.63;4.32;;;20.20;99.90;;;;;;5035759;28;20111;-61
2022/04/27 12:46:40;;;;;;;11.32;4.65;;;20.50;99.90;;;;;;5033266;28;20110;-61
2022/04/27 12:49:07;;;;;;;6.47;3.40;;;20.40;99.90;;;;;;5033832;28;20033;-61
2022/04/27 12:51:37;;;;;;;7.20;3.53;;;20.20;99.90;;;;;;5035958;28;20029;-61
2022/04/27 12:54:03;;;;;;;4.72;3.00;;;20.30;99.90;;;;;;5034197;28;20056;-61
2022/04/27 12:56:33;;;;;;;5.00;2.70;;;20.20;99.90;;;;;;5033486;28;20440;-61
2022/04/27 12:59:11;;;;;;;8.15;4.05;;;20.70;99.90;;;;;;5035649;28;20079;-61
2022/04/27 13:01:37;;;;;;;5.68;3.05;;;20.10;99.90;;;;;;5033235;28;20052;-61
2022/04/27 13:04:03;;;;;;;6.63;2.70;;;20.70;99.90;;;;;;5034371;28;20057;-61
2022/04/27 13:06:32;;;;;;;4.68;2.60;;;20.90;99.90;;;;;;5037050;28;20056;-61
2022/04/27 13:11:58;;;;;;;5.75;2.60;;;20.70;99.90;;;;;;4987658;28;20511;-61
2022/04/27 13:14:25;;;;;;;5.30;2.70;;;20.90;99.90;;;;;;4988301;28;20038;-61